Time;durP1;ratioP1;P1;durP2;ratioP2;P2;SDS_P1;SDS_P2;PMS_P1;PMS_P2;Temp;Humidity;BMP_temperature;BMP_pressure;BME280_temperature;BME280_humidity;BME280_pressure;Samples;Min_cycle;Max_cycle;Signal;HPM_P1;HPM_P2
2023/05/08 00:00:24;;;;;;;1.30;1.20;;;18.60;33.60;;;;;;6151331;23;20217;-81
2023/05/08 00:02:50;;;;;;;1.35;1.20;;;18.60;33.60;;;;;;6201974;23;20149;-82
2023/05/08 00:05:16;;;;;;;1.35;1.25;;;18.60;33.60;;;;;;6201701;23;20511;-82
2023/05/08 00:07:47;;;;;;;1.38;1.27;;;18.60;33.60;;;;;;6201619;23;20198;-82
2023/05/08 00:10:17;;;;;;;1.40;1.30;;;18.60;33.60;;;;;;6175964;23;20183;-82
2023/05/08 00:12:42;;;;;;;2.10;1.67;;;18.60;33.60;;;;;;6175777;23;20157;-83
2023/05/08 00:15:09;;;;;;;1.52;1.42;;;18.50;33.60;;;;;;6124957;23;20133;-82
2023/05/08 00:17:40;;;;;;;1.73;1.30;;;18.50;33.70;;;;;;6226226;23;20557;-82
2023/05/08 00:20:07;;;;;;;1.83;1.27;;;18.50;33.70;;;;;;6175162;23;20156;-83
2023/05/08 00:22:33;;;;;;;1.45;1.35;;;18.50;33.70;;;;;;6226110;23;20239;-83
2023/05/08 00:24:59;;;;;;;1.48;1.38;;;18.50;33.70;;;;;;6201297;23;20159;-82
2023/05/08 00:27:25;;;;;;;1.95;1.42;;;18.50;33.70;;;;;;6226678;23;20542;-82
2023/05/08 00:29:51;;;;;;;1.60;1.50;;;18.60;33.70;;;;;;6125427;23;20227;-82
2023/05/08 00:32:17;;;;;;;1.80;1.60;;;18.50;33.70;;;;;;6201223;23;20147;-82
2023/05/08 00:34:43;;;;;;;1.73;1.38;;;18.50;33.70;;;;;;6202082;22;20140;-82
2023/05/08 00:37:09;;;;;;;1.30;1.20;;;18.50;33.70;;;;;;6176899;23;20511;-84
2023/05/08 00:39:38;;;;;;;1.63;1.30;;;18.50;33.70;;;;;;6227474;23;20162;-82
2023/05/08 00:42:09;;;;;;;1.30;1.20;;;18.50;33.70;;;;;;6151387;23;20178;-82
2023/05/08 00:44:38;;;;;;;1.40;1.30;;;18.50;33.70;;;;;;6126625;23;20206;-82
2023/05/08 00:47:09;;;;;;;1.42;1.33;;;18.50;33.80;;;;;;6223642;23;20164;-82
2023/05/08 00:49:35;;;;;;;1.23;1.13;;;18.40;33.70;;;;;;6150367;23;20203;-82
2023/05/08 00:52:03;;;;;;;2.28;1.35;;;18.50;33.80;;;;;;6226748;23;20546;-84
2023/05/08 00:54:30;;;;;;;1.75;1.20;;;18.50;33.80;;;;;;6124751;23;20137;-82
2023/05/08 00:56:55;;;;;;;1.38;1.25;;;18.40;33.70;;;;;;6125311;23;20583;-82
2023/05/08 00:59:21;;;;;;;1.30;1.20;;;18.50;33.80;;;;;;6226390;23;20133;-82
2023/05/08 01:01:48;;;;;;;2.03;1.40;;;18.50;33.80;;;;;;6124171;23;20484;-81
2023/05/08 01:04:14;;;;;;;1.58;1.30;;;18.50;33.90;;;;;;6225817;23;20151;-82
2023/05/08 01:06:40;;;;;;;2.17;1.60;;;18.50;33.90;;;;;;6124559;23;20148;-81
2023/05/08 01:09:07;;;;;;;1.45;1.35;;;18.50;33.90;;;;;;6200942;23;20188;-83
2023/05/08 01:11:38;;;;;;;2.53;1.50;;;18.50;33.90;;;;;;6225661;23;20178;-82
2023/05/08 01:14:24;;;;;;;1.90;1.40;;;18.50;33.90;;;;;;6201267;23;20239;-82
2023/05/08 01:17:08;;;;;;;2.10;1.42;;;18.50;33.90;;;;;;6226253;23;20136;-82
2023/05/08 01:19:57;;;;;;;1.48;1.38;;;18.50;33.90;;;;;;6226153;23;20155;-83
2023/05/08 01:22:54;;;;;;;2.40;1.50;;;18.40;33.90;;;;;;6205496;23;20275;-82
2023/05/08 01:25:44;;;;;;;1.42;1.33;;;18.50;34.00;;;;;;6209086;23;20143;-81
2023/05/08 01:28:48;;;;;;;1.98;1.60;;;18.50;34.00;;;;;;6223743;23;20140;-82
2023/05/08 01:31:46;;;;;;;1.63;1.42;;;18.50;34.00;;;;;;6122993;23;20140;-82
2023/05/08 01:34:20;;;;;;;1.20;1.10;;;18.50;34.00;;;;;;6206342;23;20167;-82
2023/05/08 01:36:57;;;;;;;2.00;1.40;;;18.50;34.00;;;;;;6123750;22;20634;-82
2023/05/08 01:39:48;;;;;;;1.63;1.17;;;18.50;34.00;;;;;;6226330;23;20140;-82
2023/05/08 01:42:32;;;;;;;1.85;1.52;;;18.50;34.00;;;;;;6226307;23;20258;-82
2023/05/08 01:45:00;;;;;;;2.83;1.42;;;18.40;33.90;;;;;;6201638;23;20659;-82
2023/05/08 01:47:28;;;;;;;1.60;1.50;;;18.40;34.00;;;;;;6226249;23;20137;-83
2023/05/08 01:50:06;;;;;;;1.88;1.10;;;18.40;34.00;;;;;;6226314;23;20640;-82
2023/05/08 01:52:49;;;;;;;1.48;1.30;;;18.40;34.00;;;;;;6224439;23;20143;-82
2023/05/08 01:55:20;;;;;;;1.67;1.40;;;18.40;34.00;;;;;;6157576;23;20255;-82
2023/05/08 01:57:47;;;;;;;1.45;1.35;;;18.40;34.00;;;;;;6123698;23;20141;-83
2023/05/08 02:00:15;;;;;;;1.40;1.30;;;18.40;34.10;;;;;;6225506;23;20145;-82
2023/05/08 02:02:41;;;;;;;1.70;1.40;;;18.40;34.10;;;;;;6201325;23;20156;-82
2023/05/08 02:05:08;;;;;;;1.25;1.10;;;18.40;34.10;;;;;;6200971;23;20167;-82
2023/05/08 02:07:36;;;;;;;1.50;1.40;;;18.50;34.10;;;;;;6123584;23;20186;-82
2023/05/08 02:10:03;;;;;;;1.65;1.40;;;18.40;34.10;;;;;;6200925;23;20184;-82
2023/05/08 02:12:30;;;;;;;1.58;1.48;;;18.40;34.10;;;;;;6123850;23;20143;-82
2023/05/08 02:14:55;;;;;;;1.45;1.30;;;18.40;34.10;;;;;;6200818;23;20179;-82
2023/05/08 02:17:21;;;;;;;2.17;1.05;;;18.40;34.10;;;;;;6200559;23;20148;-82
2023/05/08 02:19:47;;;;;;;1.30;1.20;;;18.40;34.10;;;;;;6200689;23;20326;-83
2023/05/08 02:22:13;;;;;;;1.77;1.30;;;18.30;34.10;;;;;;6201410;23;20156;-82
2023/05/08 02:24:39;;;;;;;2.22;1.50;;;18.40;34.10;;;;;;6225858;23;20639;-82
2023/05/08 02:27:05;;;;;;;1.30;1.20;;;18.40;34.20;;;;;;6226484;23;20214;-82
2023/05/08 02:29:31;;;;;;;2.08;1.33;;;18.30;34.20;;;;;;6226096;23;20585;-82
2023/05/08 02:31:57;;;;;;;1.20;1.10;;;18.40;34.20;;;;;;6226006;23;20133;-82
2023/05/08 02:34:23;;;;;;;2.15;1.17;;;18.30;34.20;;;;;;6226508;23;20572;-82
2023/05/08 02:36:50;;;;;;;1.67;1.40;;;18.50;34.30;;;;;;6200194;23;20195;-83
2023/05/08 02:39:16;;;;;;;1.40;1.23;;;18.40;34.30;;;;;;6225574;23;20168;-83
2023/05/08 02:41:42;;;;;;;1.83;1.40;;;18.40;34.20;;;;;;6225803;23;20159;-82
2023/05/08 02:44:12;;;;;;;1.70;1.48;;;18.40;34.30;;;;;;6226305;23;20564;-82
2023/05/08 02:46:50;;;;;;;1.67;1.38;;;18.40;34.30;;;;;;6124547;23;20221;-83
2023/05/08 02:49:39;;;;;;;2.63;1.20;;;18.40;34.30;;;;;;6225212;23;20171;-82
2023/05/08 02:52:18;;;;;;;1.45;1.30;;;18.40;34.30;;;;;;6123534;23;20628;-82
2023/05/08 02:55:18;;;;;;;1.40;1.30;;;18.40;34.30;;;;;;6225158;23;20136;-83
2023/05/08 02:58:04;;;;;;;1.48;1.38;;;18.40;34.30;;;;;;6123693;23;20137;-82
2023/05/08 03:00:31;;;;;;;2.50;1.35;;;18.40;34.30;;;;;;6123802;23;20189;-83
2023/05/08 03:03:00;;;;;;;1.45;1.20;;;18.40;34.30;;;;;;6123344;23;20568;-82
2023/05/08 03:05:29;;;;;;;1.80;1.30;;;18.40;34.40;;;;;;6200033;23;20469;-82
2023/05/08 03:07:56;;;;;;;1.40;1.10;;;18.30;34.40;;;;;;6199980;23;20156;-82
2023/05/08 03:10:27;;;;;;;1.38;1.27;;;18.30;34.30;;;;;;6225064;23;20247;-82
2023/05/08 03:12:53;;;;;;;1.40;1.30;;;18.40;34.30;;;;;;6200111;23;20152;-82
2023/05/08 03:15:27;;;;;;;1.52;1.27;;;18.40;34.40;;;;;;6225269;23;20136;-83
2023/05/08 03:17:55;;;;;;;1.35;1.25;;;18.30;34.40;;;;;;6150227;23;20152;-83
2023/05/08 03:20:21;;;;;;;2.58;1.42;;;18.40;34.40;;;;;;6200277;23;20484;-82
2023/05/08 03:22:47;;;;;;;1.42;1.33;;;18.40;34.60;;;;;;6225319;23;20143;-82
2023/05/08 03:25:14;;;;;;;1.55;1.30;;;18.40;34.40;;;;;;6123398;23;20136;-82
2023/05/08 03:27:40;;;;;;;1.70;1.33;;;18.40;34.40;;;;;;6199792;23;20703;-82
2023/05/08 03:30:06;;;;;;;1.85;1.50;;;18.30;34.40;;;;;;6226294;23;20211;-82
2023/05/08 03:32:36;;;;;;;1.20;1.10;;;18.40;34.40;;;;;;6225531;23;20132;-82
2023/05/08 03:35:02;;;;;;;1.35;1.25;;;18.30;34.40;;;;;;6149403;23;20188;-82
2023/05/08 03:37:28;;;;;;;1.70;1.40;;;18.30;34.40;;;;;;6224460;23;20137;-83
2023/05/08 03:39:55;;;;;;;1.48;1.38;;;18.40;34.40;;;;;;6225650;23;20160;-82
2023/05/08 03:42:23;;;;;;;1.70;1.50;;;18.40;34.50;;;;;;6123201;23;20140;-81
2023/05/08 03:44:50;;;;;;;1.60;1.50;;;18.30;34.40;;;;;;6200206;23;20160;-81
2023/05/08 03:47:17;;;;;;;2.13;1.50;;;18.30;34.50;;;;;;6123484;23;20149;-82
2023/05/08 03:49:45;;;;;;;1.45;1.35;;;18.40;34.50;;;;;;6225219;23;20184;-81
2023/05/08 03:52:12;;;;;;;1.60;1.50;;;18.30;34.50;;;;;;6225361;23;20556;-81
2023/05/08 03:54:38;;;;;;;1.60;1.40;;;18.30;34.40;;;;;;6225097;23;20152;-81
2023/05/08 03:57:04;;;;;;;1.33;1.20;;;18.30;34.40;;;;;;6224810;23;20133;-82
2023/05/08 03:59:48;;;;;;;1.38;1.27;;;18.40;34.50;;;;;;6225516;23;20451;-80
2023/05/08 04:02:40;;;;;;;1.63;1.52;;;18.40;34.50;;;;;;6123576;23;20140;-80
2023/05/08 04:05:33;;;;;;;1.45;1.35;;;18.40;34.50;;;;;;6205311;23;20152;-81
2023/05/08 04:08:08;;;;;;;1.40;1.30;;;18.30;34.50;;;;;;6224344;23;20158;-82
2023/05/08 04:10:41;;;;;;;1.35;1.25;;;18.30;34.50;;;;;;6224860;23;20657;-81
2023/05/08 04:13:11;;;;;;;1.42;1.20;;;18.30;34.50;;;;;;6199754;23;20480;-81
2023/05/08 04:15:39;;;;;;;1.85;1.30;;;18.40;34.50;;;;;;6123269;23;20129;-81
2023/05/08 04:18:08;;;;;;;1.30;1.20;;;18.40;34.50;;;;;;6225123;23;20164;-81
2023/05/08 04:20:34;;;;;;;1.40;1.30;;;18.40;34.50;;;;;;6225165;23;20472;-81
2023/05/08 04:23:00;;;;;;;1.40;1.30;;;18.30;34.50;;;;;;6225092;23;20217;-81
2023/05/08 04:25:30;;;;;;;1.33;1.23;;;18.30;34.40;;;;;;6123126;23;20475;-81
2023/05/08 04:27:57;;;;;;;1.63;1.40;;;18.40;34.50;;;;;;6173820;23;20160;-81
2023/05/08 04:30:23;;;;;;;1.42;1.33;;;18.40;34.50;;;;;;6123108;23;20176;-81
2023/05/08 04:32:49;;;;;;;1.27;1.17;;;18.40;34.50;;;;;;6123274;23;20564;-81
2023/05/08 04:35:15;;;;;;;1.20;1.10;;;18.40;34.50;;;;;;6225025;23;20202;-81
2023/05/08 04:37:42;;;;;;;1.33;1.23;;;18.40;34.40;;;;;;6122993;23;20148;-82
2023/05/08 04:40:09;;;;;;;1.63;1.48;;;18.40;34.40;;;;;;6224959;23;20590;-81
2023/05/08 04:42:37;;;;;;;1.20;1.10;;;18.40;34.40;;;;;;6224642;23;20144;-81
2023/05/08 04:45:08;;;;;;;1.58;1.42;;;18.40;34.40;;;;;;6123487;23;20182;-82
2023/05/08 04:47:34;;;;;;;1.88;1.27;;;18.40;34.40;;;;;;6173846;23;20156;-82
2023/05/08 04:50:00;;;;;;;1.17;1.08;;;18.50;34.40;;;;;;6123649;23;20160;-80
2023/05/08 04:52:26;;;;;;;1.60;1.50;;;18.50;34.40;;;;;;6199468;23;20581;-81
2023/05/08 04:54:52;;;;;;;1.58;1.33;;;18.50;34.40;;;;;;6225347;23;20148;-81
2023/05/08 04:57:18;;;;;;;1.30;1.20;;;18.50;34.40;;;;;;6224739;23;20136;-81
2023/05/08 04:59:44;;;;;;;1.30;1.20;;;18.50;34.40;;;;;;6225153;23;20140;-82
2023/05/08 05:02:10;;;;;;;2.05;1.60;;;18.50;34.30;;;;;;6123086;23;20468;-81
2023/05/08 05:04:36;;;;;;;1.52;1.40;;;18.50;34.30;;;;;;6199265;23;20160;-81
2023/05/08 05:07:02;;;;;;;1.48;1.30;;;18.60;34.30;;;;;;6225406;23;20167;-81
2023/05/08 05:09:28;;;;;;;1.92;1.42;;;18.60;34.30;;;;;;6224541;23;20164;-81
2023/05/08 05:11:54;;;;;;;1.38;1.27;;;18.50;34.30;;;;;;6199156;23;20152;-82
2023/05/08 05:14:20;;;;;;;1.35;1.25;;;18.60;34.10;;;;;;6224654;23;20243;-81
2023/05/08 05:16:46;;;;;;;1.20;1.10;;;18.60;34.10;;;;;;6224831;23;20128;-82
2023/05/08 05:19:12;;;;;;;1.40;1.30;;;18.60;34.10;;;;;;6224013;23;20144;-82
2023/05/08 05:21:38;;;;;;;1.35;1.25;;;18.60;34.20;;;;;;6224286;23;20511;-82
2023/05/08 05:24:05;;;;;;;1.88;1.35;;;18.60;34.20;;;;;;6123117;23;20435;-82
2023/05/08 05:26:31;;;;;;;2.30;1.20;;;18.70;34.10;;;;;;6199433;23;20156;-82
2023/05/08 05:28:57;;;;;;;1.42;1.33;;;18.70;34.10;;;;;;6224962;23;20215;-82
2023/05/08 05:31:23;;;;;;;1.70;1.40;;;18.60;34.10;;;;;;6122995;23;20140;-83
2023/05/08 05:33:49;;;;;;;2.20;1.30;;;18.70;34.10;;;;;;6123267;23;20571;-82
2023/05/08 05:36:15;;;;;;;1.23;1.13;;;18.70;34.10;;;;;;6155538;23;20191;-82
2023/05/08 05:38:41;;;;;;;1.50;1.38;;;18.70;34.10;;;;;;6097025;23;20674;-82
2023/05/08 05:41:07;;;;;;;1.75;1.52;;;18.70;34.10;;;;;;6123303;23;20598;-82
2023/05/08 05:43:32;;;;;;;2.28;1.35;;;18.80;34.10;;;;;;6123880;23;20242;-82
2023/05/08 05:46:06;;;;;;;1.40;1.30;;;18.70;34.00;;;;;;6123217;23;20141;-82
2023/05/08 05:48:32;;;;;;;1.35;1.25;;;18.70;34.10;;;;;;6096960;23;20205;-82
2023/05/08 05:51:02;;;;;;;1.45;1.13;;;18.70;34.00;;;;;;6123191;23;20326;-82
2023/05/08 05:53:32;;;;;;;1.77;1.52;;;18.70;33.90;;;;;;6173539;23;20183;-82
2023/05/08 05:56:02;;;;;;;2.15;1.25;;;18.80;34.00;;;;;;6148529;23;20609;-81
2023/05/08 05:58:28;;;;;;;2.08;1.50;;;18.80;34.00;;;;;;6198737;23;20364;-82
2023/05/08 06:00:54;;;;;;;1.45;1.35;;;18.70;34.00;;;;;;6122470;23;20573;-82
2023/05/08 06:03:20;;;;;;;1.40;1.30;;;18.70;34.00;;;;;;6121864;23;20144;-82
2023/05/08 06:05:46;;;;;;;1.40;1.30;;;18.80;34.10;;;;;;6120232;23;20180;-82
2023/05/08 06:08:12;;;;;;;1.45;1.35;;;18.70;34.10;;;;;;6120132;23;20160;-82
2023/05/08 06:10:38;;;;;;;1.40;1.25;;;18.60;34.10;;;;;;6120495;23;20184;-82
2023/05/08 06:13:04;;;;;;;1.30;1.20;;;18.80;34.10;;;;;;6096516;23;20151;-82
2023/05/08 06:15:30;;;;;;;4.25;1.33;;;18.80;34.10;;;;;;6121627;23;20160;-82
2023/05/08 06:17:55;;;;;;;1.60;1.50;;;18.80;34.10;;;;;;6120529;23;20132;-82
2023/05/08 06:20:21;;;;;;;1.30;1.20;;;18.80;34.20;;;;;;6120470;23;20148;-82
2023/05/08 06:22:47;;;;;;;1.50;1.30;;;18.80;34.20;;;;;;6122069;23;20217;-82
2023/05/08 06:25:13;;;;;;;1.65;1.35;;;18.80;34.20;;;;;;6121763;23;20144;-82
2023/05/08 06:27:39;;;;;;;1.55;1.25;;;18.80;34.10;;;;;;6122166;23;20141;-82
2023/05/08 06:30:09;;;;;;;1.23;1.13;;;18.70;34.10;;;;;;6121581;23;20234;-82
2023/05/08 06:32:35;;;;;;;1.42;1.33;;;18.80;34.20;;;;;;6123404;23;20179;-82
2023/05/08 06:35:01;;;;;;;1.60;1.50;;;18.80;34.10;;;;;;6128244;23;20249;-82
2023/05/08 06:37:27;;;;;;;1.90;1.40;;;18.80;34.10;;;;;;6200317;23;20156;-82
2023/05/08 06:39:52;;;;;;;1.60;1.50;;;18.80;34.10;;;;;;6124333;23;20164;-83
2023/05/08 06:42:24;;;;;;;1.70;1.30;;;18.70;34.10;;;;;;6202431;23;20151;-83
2023/05/08 06:44:52;;;;;;;1.40;1.30;;;18.70;34.20;;;;;;6224742;23;20132;-83
2023/05/08 06:47:19;;;;;;;1.58;1.30;;;18.70;34.30;;;;;;6228808;23;20631;-83
2023/05/08 06:49:45;;;;;;;1.88;1.45;;;18.70;34.40;;;;;;6227960;23;20187;-83
2023/05/08 06:52:17;;;;;;;1.67;1.30;;;18.70;34.50;;;;;;6204257;23;20497;-83
2023/05/08 06:54:50;;;;;;;1.30;1.20;;;18.60;34.60;;;;;;6205577;23;20148;-84
2023/05/08 06:57:16;;;;;;;1.90;1.60;;;18.70;34.50;;;;;;6166001;23;20155;-82
2023/05/08 06:59:49;;;;;;;4.53;1.05;;;18.70;34.60;;;;;;6164264;23;20568;-82
2023/05/08 07:02:15;;;;;;;2.25;1.10;;;18.60;34.70;;;;;;6155112;23;20151;-84
2023/05/08 07:04:43;;;;;;;2.70;1.20;;;18.80;34.70;;;;;;6132021;23;20206;-82
2023/05/08 07:07:10;;;;;;;1.30;1.20;;;18.80;34.80;;;;;;6108371;23;20615;-84
2023/05/08 07:09:36;;;;;;;1.20;1.10;;;18.70;34.60;;;;;;6133247;23;20172;-84
2023/05/08 07:12:04;;;;;;;1.27;1.05;;;18.70;34.80;;;;;;6134157;23;20152;-84
2023/05/08 07:14:32;;;;;;;4.72;1.25;;;18.70;34.90;;;;;;6108751;23;20148;-83
2023/05/08 07:16:59;;;;;;;1.35;1.13;;;18.60;35.10;;;;;;6059845;23;20167;-84
2023/05/08 07:19:28;;;;;;;1.02;0.93;;;18.60;35.10;;;;;;6105886;23;20230;-84
2023/05/08 07:21:59;;;;;;;1.23;1.10;;;18.70;35.10;;;;;;6107269;23;20220;-84
2023/05/08 07:24:28;;;;;;;2.05;1.00;;;18.80;34.80;;;;;;6131036;23;20334;-82
2023/05/08 07:26:59;;;;;;;1.98;0.98;;;18.80;34.70;;;;;;6106943;23;20202;-82
2023/05/08 07:29:40;;;;;;;1.55;1.05;;;18.80;34.80;;;;;;6083080;23;20677;-83
2023/05/08 07:32:07;;;;;;;2.15;1.17;;;18.80;34.70;;;;;;6109655;23;20233;-83
2023/05/08 07:34:33;;;;;;;1.70;1.20;;;18.80;34.70;;;;;;6193409;23;20143;-83
2023/05/08 07:37:00;;;;;;;1.40;1.00;;;18.80;34.90;;;;;;6143698;23;20151;-83
2023/05/08 07:39:31;;;;;;;1.85;1.20;;;18.80;35.00;;;;;;6138512;23;20700;-83
2023/05/08 07:41:59;;;;;;;1.40;0.90;;;18.80;35.10;;;;;;6197258;22;20152;-82
2023/05/08 07:44:37;;;;;;;1.75;1.20;;;18.80;35.10;;;;;;6233017;22;20168;-83
2023/05/08 07:47:17;;;;;;;2.00;1.30;;;18.80;35.20;;;;;;6178028;22;20180;-83
2023/05/08 07:49:46;;;;;;;2.28;1.40;;;18.80;35.20;;;;;;6203126;22;20190;-83
2023/05/08 07:52:13;;;;;;;2.45;1.15;;;18.80;35.10;;;;;;6204882;22;20141;-84
2023/05/08 07:54:45;;;;;;;1.17;1.10;;;18.80;35.30;;;;;;6178954;22;20152;-83
2023/05/08 07:57:12;;;;;;;1.70;1.05;;;18.80;35.50;;;;;;6226404;22;20148;-83
2023/05/08 07:59:38;;;;;;;1.75;1.33;;;18.80;35.50;;;;;;6202154;22;20568;-83
2023/05/08 08:02:03;;;;;;;3.55;1.25;;;18.80;35.60;;;;;;6277690;22;20139;-83
2023/05/08 08:04:32;;;;;;;1.20;1.10;;;18.80;35.50;;;;;;6251328;22;20224;-83
2023/05/08 08:06:57;;;;;;;1.35;1.20;;;18.80;35.30;;;;;;6201510;22;20510;-83
2023/05/08 08:09:23;;;;;;;1.40;1.00;;;18.90;35.30;;;;;;6160394;23;20202;-83
2023/05/08 08:11:49;;;;;;;1.40;1.08;;;18.90;35.40;;;;;;6161646;23;20234;-83
2023/05/08 08:14:15;;;;;;;3.95;1.30;;;19.00;35.50;;;;;;6136738;23;20225;-82
2023/05/08 08:16:43;;;;;;;2.70;1.10;;;18.90;35.80;;;;;;6161392;23;20138;-83
2023/05/08 08:19:10;;;;;;;3.58;1.10;;;18.90;35.80;;;;;;6160461;23;20155;-83
2023/05/08 08:21:40;;;;;;;1.83;1.20;;;18.90;35.50;;;;;;6090425;23;20158;-84
2023/05/08 08:24:16;;;;;;;1.35;0.90;;;18.90;35.30;;;;;;6164867;23;20157;-83
2023/05/08 08:26:42;;;;;;;6.90;1.42;;;18.90;35.60;;;;;;6114038;23;20608;-82
2023/05/08 08:29:08;;;;;;;3.58;1.30;;;18.90;35.70;;;;;;6138142;23;20179;-82
2023/05/08 08:31:37;;;;;;;14.43;1.85;;;19.00;35.70;;;;;;6093194;23;20233;-81
2023/05/08 08:34:03;;;;;;;12.25;1.90;;;19.00;35.60;;;;;;6141431;23;20202;-82
2023/05/08 08:36:31;;;;;;;12.80;1.77;;;19.00;35.70;;;;;;6140172;23;20190;-82
2023/05/08 08:38:58;;;;;;;10.43;1.80;;;19.00;35.70;;;;;;6139092;23;20143;-82
2023/05/08 08:41:24;;;;;;;13.13;1.95;;;19.00;35.70;;;;;;6247285;22;20149;-82
2023/05/08 08:43:52;;;;;;;9.65;1.65;;;19.10;35.70;;;;;;6227068;22;20547;-82
2023/05/08 08:46:39;;;;;;;7.22;1.67;;;19.10;35.60;;;;;;6253375;22;20633;-83
2023/05/08 08:49:25;;;;;;;7.38;1.50;;;19.10;35.60;;;;;;6161862;23;20174;-83
2023/05/08 08:52:02;;;;;;;5.63;1.30;;;19.10;35.70;;;;;;6098186;23;20177;-84
2023/05/08 08:54:35;;;;;;;8.30;1.42;;;19.00;35.80;;;;;;6105574;23;20248;-84
2023/05/08 08:57:12;;;;;;;4.60;1.60;;;19.10;35.70;;;;;;6103517;23;20156;-84
2023/05/08 08:59:55;;;;;;;7.43;1.55;;;19.10;35.70;;;;;;6073688;23;20620;-82
2023/05/08 09:02:54;;;;;;;6.57;1.70;;;19.10;35.70;;;;;;6030236;23;20187;-83
2023/05/08 09:05:44;;;;;;;4.68;1.70;;;19.00;36.00;;;;;;6059723;23;20207;-85
2023/05/08 09:08:17;;;;;;;9.63;1.73;;;19.00;36.10;;;;;;6057718;23;20154;-82
2023/05/08 09:10:52;;;;;;;;;;;;;;;;;;;;;
2023/05/08 09:13:19;;;;;;;5.70;1.63;;;19.00;36.00;;;;;;6036075;23;20302;-83
2023/05/08 09:15:46;;;;;;;6.63;1.70;;;19.00;36.10;;;;;;6017932;23;20212;-83
2023/05/08 09:18:25;;;;;;;11.48;1.60;;;19.00;36.10;;;;;;6018522;23;20266;-83
2023/05/08 09:20:57;;;;;;;5.30;1.15;;;19.00;36.00;;;;;;6021357;23;20177;-84
2023/05/08 09:23:49;;;;;;;6.50;1.45;;;18.90;36.30;;;;;;6020920;23;20150;-83
2023/05/08 09:26:31;;;;;;;9.05;1.60;;;18.90;36.30;;;;;;6057674;23;20161;-84
2023/05/08 09:29:23;;;;;;;6.18;1.60;;;18.90;36.30;;;;;;6065138;23;20236;-83
2023/05/08 09:31:51;;;;;;;5.28;1.55;;;18.90;36.40;;;;;;6093903;23;20212;-83
2023/05/08 09:34:27;;;;;;;8.00;1.70;;;19.00;36.40;;;;;;6171542;23;20374;-84
2023/05/08 09:36:55;;;;;;;9.45;1.35;;;18.90;36.40;;;;;;5986853;23;20582;-83
2023/05/08 09:39:23;;;;;;;5.88;1.45;;;18.90;36.40;;;;;;6015532;23;20216;-83
2023/05/08 09:42:05;;;;;;;4.00;1.42;;;18.90;36.30;;;;;;6015668;23;20153;-82
2023/05/08 09:44:48;;;;;;;4.32;1.67;;;19.00;36.40;;;;;;6071569;23;20179;-82
2023/05/08 09:47:15;;;;;;;4.28;1.40;;;19.00;36.30;;;;;;6125374;23;20516;-83
2023/05/08 09:49:58;;;;;;;4.28;1.35;;;19.00;36.30;;;;;;6149144;23;20593;-82
2023/05/08 09:52:23;;;;;;;6.28;1.60;;;19.00;36.50;;;;;;6228856;22;20161;-83
2023/05/08 09:55:02;;;;;;;2.75;1.60;;;19.00;36.30;;;;;;6150461;23;20215;-83
2023/05/08 09:57:28;;;;;;;2.58;1.33;;;18.90;36.40;;;;;;6126925;23;20541;-83
2023/05/08 10:00:08;;;;;;;3.10;1.52;;;19.00;36.50;;;;;;6204022;23;20143;-83
2023/05/08 10:02:37;;;;;;;6.00;1.52;;;19.00;36.50;;;;;;6124072;23;20216;-84
2023/05/08 10:05:26;;;;;;;3.45;1.40;;;19.10;36.40;;;;;;6104859;23;20212;-85
2023/05/08 10:08:15;;;;;;;2.65;1.40;;;19.00;36.40;;;;;;6097693;23;20672;-84
2023/05/08 10:10:48;;;;;;;3.55;1.55;;;19.10;36.40;;;;;;6180805;23;20218;-84
2023/05/08 10:13:14;;;;;;;3.40;1.35;;;19.10;36.40;;;;;;6213889;23;20167;-85
2023/05/08 10:15:44;;;;;;;4.22;1.50;;;19.10;36.50;;;;;;6236962;23;20136;-86
2023/05/08 10:18:10;;;;;;;3.00;1.33;;;19.10;36.30;;;;;;6159704;23;20158;-86
2023/05/08 10:20:43;;;;;;;2.55;1.50;;;19.10;36.50;;;;;;6206834;23;20152;-84
2023/05/08 10:23:13;;;;;;;2.80;1.40;;;19.00;36.40;;;;;;6162616;23;20179;-83
2023/05/08 10:25:49;;;;;;;3.08;1.58;;;19.10;36.40;;;;;;6207121;23;20151;-82
2023/05/08 10:28:28;;;;;;;2.40;1.50;;;19.00;36.40;;;;;;6160011;23;20159;-86
2023/05/08 10:30:59;;;;;;;1.50;1.30;;;19.10;36.50;;;;;;6238491;23;20681;-84
2023/05/08 10:33:39;;;;;;;;;;;;;;;;;;;;;
2023/05/08 10:36:23;;;;;;;3.28;1.30;;;19.10;36.50;;;;;;6110881;23;20626;-82
2023/05/08 10:39:21;;;;;;;5.18;1.70;;;19.10;36.40;;;;;;6098515;23;20168;-84
2023/05/08 10:42:13;;;;;;;;;;;;;;;;;;;;;
2023/05/08 10:48:37;;;;;;;2.10;1.40;;;19.10;36.40;;;;;;6038185;23;20162;-83
2023/05/08 10:51:35;;;;;;;2.10;1.50;;;19.10;36.40;;;;;;5991240;23;20701;-83
2023/05/08 10:54:22;;;;;;;;;;;;;;;;;;;;;
2023/05/08 10:57:19;;;;;;;1.95;1.48;;;19.10;36.40;;;;;;5926280;24;20248;-84
2023/05/08 10:59:56;;;;;;;2.45;1.20;;;19.10;36.40;;;;;;5954051;24;20156;-83
2023/05/08 11:02:41;;;;;;;1.50;1.40;;;19.20;36.30;;;;;;5953126;24;20165;-83
2023/05/08 11:05:22;;;;;;;2.83;1.45;;;19.20;36.30;;;;;;5972146;24;20183;-83
2023/05/08 11:08:15;;;;;;;2.40;1.48;;;19.20;36.10;;;;;;5941957;23;20245;-83
2023/05/08 11:11:17;;;;;;;2.10;1.40;;;19.20;36.10;;;;;;5938546;24;20191;-83
2023/05/08 11:13:54;;;;;;;2.15;1.50;;;19.20;36.10;;;;;;6006671;23;20154;-83
2023/05/08 11:16:55;;;;;;;1.75;1.45;;;19.20;36.10;;;;;;5986200;23;20154;-85
2023/05/08 11:23:06;;;;;;;1.55;1.45;;;19.20;36.00;;;;;;5982923;23;20190;-83
2023/05/08 11:26:06;;;;;;;;;;;;;;;;;;;;;
2023/05/08 11:28:43;;;;;;;1.60;1.50;;;19.30;35.80;;;;;;6034122;23;20240;-83
2023/05/08 11:31:45;;;;;;;2.35;1.50;;;19.30;35.80;;;;;;6037906;23;20193;-83
2023/05/08 11:34:52;;;;;;;1.83;1.48;;;19.30;35.80;;;;;;6037650;23;20249;-83
2023/05/08 11:37:38;;;;;;;2.20;1.45;;;19.30;35.80;;;;;;6014534;23;20162;-83
2023/05/08 11:40:47;;;;;;;2.00;1.48;;;19.30;36.60;;;;;;6058968;23;20192;-83
2023/05/08 11:43:30;;;;;;;1.67;1.40;;;19.30;36.00;;;;;;6095041;23;20156;-84
2023/05/08 11:46:29;;;;;;;2.10;1.40;;;19.30;35.90;;;;;;6095597;23;20489;-83
2023/05/08 11:49:10;;;;;;;2.55;1.50;;;19.30;35.90;;;;;;6073330;23;20157;-83
2023/05/08 11:51:56;;;;;;;2.03;1.60;;;19.30;35.90;;;;;;6071399;23;20169;-83
2023/05/08 11:54:27;;;;;;;1.60;1.50;;;19.30;35.90;;;;;;6092669;23;20625;-83
2023/05/08 11:56:58;;;;;;;1.50;1.40;;;19.30;35.80;;;;;;6095538;23;20183;-84
2023/05/08 11:59:27;;;;;;;1.40;1.30;;;19.30;35.70;;;;;;6217118;23;20236;-82
2023/05/08 12:01:53;;;;;;;3.65;1.60;;;19.30;35.70;;;;;;6194676;23;20232;-83
2023/05/08 12:04:19;;;;;;;2.47;1.30;;;19.40;35.60;;;;;;6213981;23;20154;-83
2023/05/08 12:06:50;;;;;;;1.67;1.58;;;19.40;35.60;;;;;;6164207;23;20164;-84
2023/05/08 12:09:24;;;;;;;2.45;1.23;;;19.30;35.70;;;;;;6164111;23;20178;-83
2023/05/08 12:12:15;;;;;;;2.22;1.50;;;19.30;35.50;;;;;;6154447;23;20148;-83
2023/05/08 12:14:41;;;;;;;2.50;1.30;;;19.30;36.10;;;;;;6129890;23;20525;-82
2023/05/08 12:17:10;;;;;;;1.48;1.38;;;19.30;35.50;;;;;;6129743;23;20179;-83
2023/05/08 12:20:02;;;;;;;1.60;1.38;;;19.30;35.30;;;;;;6066089;23;20164;-83
2023/05/08 12:22:28;;;;;;;2.83;1.50;;;19.30;35.30;;;;;;6037159;23;20274;-83
2023/05/08 12:24:57;;;;;;;2.35;1.40;;;19.30;35.40;;;;;;6038078;23;20595;-82
2023/05/08 12:27:30;;;;;;;3.85;1.35;;;19.30;35.30;;;;;;5990871;23;20158;-83
2023/05/08 12:30:00;;;;;;;1.75;1.33;;;19.30;35.40;;;;;;5991558;23;20182;-82
2023/05/08 12:32:29;;;;;;;1.48;1.38;;;19.30;35.50;;;;;;5967517;23;20169;-82
2023/05/08 12:35:29;;;;;;;1.30;1.20;;;19.20;35.40;;;;;;6037157;23;20154;-83
2023/05/08 12:41:03;;;;;;;1.50;1.40;;;19.30;35.40;;;;;;6008886;23;20166;-83
2023/05/08 12:43:55;;;;;;;1.50;1.40;;;19.40;35.40;;;;;;6002628;23;20234;-82
2023/05/08 12:46:26;;;;;;;1.63;1.52;;;19.30;35.40;;;;;;6018937;23;20153;-83
2023/05/08 12:52:10;;;;;;;1.50;1.40;;;19.30;35.50;;;;;;5975351;23;20181;-83
2023/05/08 12:54:45;;;;;;;2.75;1.50;;;19.30;35.50;;;;;;5894153;24;20185;-82
2023/05/08 12:57:11;;;;;;;1.48;1.38;;;19.40;35.50;;;;;;5866473;24;20197;-82
2023/05/08 13:00:20;;;;;;;1.60;1.50;;;19.40;35.50;;;;;;5867989;24;20173;-82
2023/05/08 13:02:53;;;;;;;2.40;1.45;;;19.40;35.50;;;;;;5947950;23;20740;-81
2023/05/08 13:08:31;;;;;;;1.38;1.27;;;19.40;35.50;;;;;;5947354;23;20249;-82
2023/05/08 13:11:16;;;;;;;2.67;1.60;;;19.30;35.60;;;;;;5908152;23;20190;-83
2023/05/08 13:14:34;;;;;;;2.38;1.40;;;19.30;35.70;;;;;;6016830;23;20225;-83
2023/05/08 13:17:09;;;;;;;2.00;1.48;;;19.40;35.70;;;;;;5984637;23;20159;-83
2023/05/08 13:19:35;;;;;;;1.48;1.38;;;19.40;35.70;;;;;;5985048;23;20668;-83
2023/05/08 13:22:14;;;;;;;;;;;;;;;;;;;;;
2023/05/08 13:24:44;;;;;;;1.63;1.42;;;19.40;35.60;;;;;;5959444;24;20240;-84
2023/05/08 13:27:16;;;;;;;1.63;1.52;;;19.40;35.70;;;;;;5989513;23;20597;-85
2023/05/08 13:29:42;;;;;;;1.60;1.50;;;19.30;35.70;;;;;;6132108;23;20214;-85
2023/05/08 13:32:08;;;;;;;1.38;1.27;;;19.30;35.70;;;;;;6132052;23;20151;-85
2023/05/08 13:34:40;;;;;;;2.70;1.60;;;19.30;35.70;;;;;;6155602;23;20143;-84
2023/05/08 13:37:18;;;;;;;1.48;1.20;;;19.40;35.70;;;;;;6133425;23;20669;-85